• Join FlightAware (Why Join?)
  • Login
  • US Flag 
08:33AM EST


 

Airport Tracker/Info


-or-


 

Live Flight TrackerFlight Track Log ✈ THY420 ✈ 07-Sep-2013 ✈ UUWW / VKO - LTBA / IST

Flight Track Log - Related Links

Times and Time Zones

All times are in EDT time to prevent confusion due to time zone crossing. See the THY420 flight status page for this flight to view local times or setup timezone preferences in your user account.

Time Position Orientation Groundspeed Altitude Reporting Facility
EDT Latitude Longitude Course Direction KTS MPH feet Rate Location/Type
10:12PM 55.6190 37.2840 22° Northeast 144 166 2,200  Level FlightAware
10:12PM 55.6320 37.2930 21° North 146 168 2,800 1,020 Climbing FlightAware
10:12PM 55.6420 37.2980 16° North 153 176 2,800 840 Level FlightAware
10:13PM 55.6540 37.2830 325° Northwest 190 219 3,300 1,200 Climbing FlightAware
10:13PM 55.6560 37.2760 297° West 203 234 3,300 780 Level FlightAware
10:13PM 55.6570 37.2590 276° West 219 252 3,500 1,200 Climbing FlightAware
10:13PM 55.6580 37.2200 273° West 249 287 3,900 2,220 Climbing FlightAware
10:14PM 55.6530 37.1800 258° West 250 288 5,000 2,400 Climbing FlightAware
10:14PM 55.6380 37.1340 240° Southwest 283 326 5,700 1,680 Climbing FlightAware
10:14PM 55.6250 37.0910 242° Southwest 300 345 6,300 1,800 Climbing FlightAware
10:15PM 55.6170 37.0700 236° Southwest 304 350 6,600 1,500 Climbing FlightAware
10:15PM 55.6060 37.0540 219° Southwest 306 352 6,800 1,560 Climbing FlightAware
10:15PM 55.6000 37.0480 209° Southwest 305 351 7,000 1,200 Climbing FlightAware
10:15PM 55.5880 37.0400 201° Southwest 302 348 7,100 960 Climbing FlightAware
10:15PM 55.5600 37.0360 185° South 298 343 7,500 1,020 Climbing FlightAware
10:16PM 55.5320 37.0330 183° South 300 345 7,800 1,200 Climbing FlightAware
10:16PM 55.5040 37.0300 183° South 304 350 8,300 1,860 Climbing FlightAware
10:16PM 55.4830 37.0270 185° South 313 360 8,900 1,680 Climbing FlightAware
10:17PM 55.4520 37.0230 184° South 337 388 9,300 1,200 Climbing FlightAware
10:17PM 55.4200 37.0190 184° South 356 410 9,700 1,380 Climbing FlightAware
10:18PM 55.3610 37.0110 184° South 368 423 10,600 2,280 Climbing FlightAware
10:18PM 55.2950 36.9790 195° South 378 435 12,600 2,820 Climbing FlightAware
10:19PM 55.2460 36.9490 199° South 388 447 13,900 2,940 Climbing FlightAware
10:19PM 55.1850 36.9130 199° South 391 450 15,800 3,000 Climbing FlightAware
10:20PM 55.1170 36.8720 199° South 401 461 17,700 2,700 Climbing FlightAware
10:20PM 55.0630 36.8390 199° South 411 473 19,000 2,460 Climbing FlightAware
10:21PM 55.0000 36.8010 199° South 420 483 20,400 2,160 Climbing FlightAware
10:22PM 54.9250 36.7560 199° South 439 505 21,700 1,920 Climbing FlightAware
10:22PM 54.8560 36.7150 199° South 453 521 22,800 1,800 Climbing FlightAware
10:23PM 54.7970 36.6800 199° South 465 535 23,700 1,920 Climbing FlightAware
10:23PM 54.7240 36.6400 198° South 471 542 24,900 1,920 Climbing FlightAware
10:24PM 54.6380 36.6120 191° South 478 550 26,100 1,680 Climbing FlightAware
10:25PM 54.5730 36.5910 191° South 486 559 26,900 1,560 Climbing FlightAware
10:25PM 54.4940 36.5650 191° South 496 571 27,800 1,440 Climbing FlightAware
10:26PM 54.4040 36.5370 190° South 507 583 28,700 1,320 Climbing FlightAware
10:26PM 54.3230 36.5110 191° South 514 592 29,500 1,380 Climbing FlightAware
10:27PM 54.2510 36.4880 191° South 518 596 30,200 1,800 Climbing FlightAware
10:27PM 54.1690 36.4630 190° South 512 589 31,500 1,980 Climbing FlightAware
10:28PM 54.0760 36.4340 190° South 509 586 32,700 1,680 Climbing FlightAware
10:29PM 54.0080 36.4120 191° South 507 583 33,500 1,200 Climbing FlightAware
10:29PM 53.9270 36.3870 190° South 508 585 34,000 360 Climbing FlightAware
10:30PM 53.8360 36.3590 190° South 507 583 34,000  Level FlightAware
10:30PM 53.7550 36.3330 191° South 506 582 34,000  Level FlightAware
10:31PM 53.6850 36.3120 190° South 505 581 34,000  Level FlightAware
10:32PM 53.5930 36.2840 190° South 504 580 34,000  Level FlightAware
10:32PM 53.5130 36.2600 190° South 504 580 34,000  Level FlightAware
10:33PM 53.4450 36.2400 190° South 505 581 34,000  Level FlightAware
10:33PM 53.3650 36.2150 191° South 505 581 34,000  Level FlightAware
10:34PM 53.2730 36.1860 191° South 505 581 34,000  Level FlightAware
10:34PM 53.2050 36.1650 190° South 506 582 34,000  Level FlightAware
10:35PM 53.1250 36.1410 190° South 506 582 34,000  Level FlightAware
10:36PM 53.0340 36.1140 190° South 505 581 34,000  Level FlightAware
10:36PM 52.9660 36.1050 185° South 499 574 34,000  Level FlightAware
10:37PM 52.8820 36.1150 176° South 493 567 34,000  Level FlightAware
10:37PM 52.8050 36.1270 175° South 492 566 34,000  Level FlightAware
10:38PM 52.7440 36.1370 174° South 492 566 34,000  Level FlightAware
10:39PM 52.6440 36.1530 174° South 486 559 34,000  Level FlightAware
10:39PM 52.5680 36.1650 175° South 472 543 34,000  Level FlightAware
10:40PM 52.4680 36.1820 174° South 466 536 34,000  Level FlightAware
10:40PM 52.3920 36.1940 174° South 465 535 34,000  Level FlightAware
10:41PM 52.3290 36.2040 174° South 464 534 34,000  Level FlightAware
10:42PM 52.2350 36.2190 174° South 464 534 34,000  Level FlightAware
10:42PM 52.1570 36.2310 175° South 464 534 34,000  Level FlightAware
10:43PM 52.0830 36.2430 174° South 465 535 34,000  Level FlightAware
10:44PM 51.9820 36.2600 174° South 466 536 34,000  Level FlightAware
10:44PM 51.9140 36.2700 175° South 469 540 34,000  Level FlightAware
10:45PM 51.8250 36.2830 175° South 469 540 34,000  Level FlightAware
10:45PM 51.7680 36.2920 174° South 469 540 34,000  Level FlightAware
10:46PM 51.6670 36.2570 192° South 478 550 34,000  Level FlightAware
10:47PM 51.5890 36.2210 196° South 478 550 34,000  Level FlightAware
10:47PM 51.5220 36.1900 196° South 478 550 34,000  Level FlightAware
10:48PM 51.4570 36.1600 196° South 478 550 34,000  Level FlightAware
10:49PM 51.3920 36.1310 196° South 478 550 34,000  Level FlightAware
10:49PM 51.3250 36.1000 196° South 478 550 34,000  Level FlightAware
10:50PM 51.2600 36.0700 196° South 478 550 34,000  Level FlightAware
10:50PM 51.1950 36.0400 196° South 478 550 34,000  Level FlightAware
10:51PM 51.1300 36.0110 196° South 478 550 34,000  Level FlightAware
10:52PM 50.9620 35.9460 194° South 34,000  Level FlightAware
10:54PM 50.7723 35.7798 209° Southwest  Level Estimated
10:55PM 50.6724 35.6928 209° Southwest  Level Estimated
10:55PM 50.5190 35.7590 209° Southwest 34,000  Level FlightAware
10:56PM 50.4370 35.7280 194° South 488 562 34,000  Level FlightAware
10:56PM 50.3790 35.7070 193° South 487 560 34,000  Level FlightAware
10:57PM 50.2850 35.6740 193° South 484 557 34,000  Level FlightAware
10:57PM 50.2140 35.6490 193° South 480 552 34,000  Level FlightAware
10:58PM 50.1270 35.6180 193° South 478 550 34,000  Level FlightAware
10:59PM 50.0470 35.5910 192° South 476 548 34,000  Level FlightAware
10:59PM 49.9840 35.5680 193° South 476 548 34,000  Level FlightAware
11:00PM 49.9100 35.5350 196° South 474 545 34,000  Level FlightAware
11:00PM 49.8310 35.4760 206° Southwest 474 545 34,000  Level FlightAware
11:01PM 49.7740 35.4300 208° Southwest 472 543 34,000  Level FlightAware
11:01PM 49.7090 35.3790 207° Southwest 470 541 34,000  Level FlightAware
11:02PM 49.6370 35.3220 207° Southwest 469 540 34,000  Level FlightAware
11:03PM 49.5760 35.2740 207° Southwest 468 539 34,000  Level FlightAware
11:03PM 49.5040 35.2170 207° Southwest 467 537 34,000  Level FlightAware
11:04PM 49.4280 35.1570 207° Southwest 471 542 34,000  Level FlightAware
11:04PM 49.3690 35.1110 207° Southwest 472 543 34,000  Level FlightAware
11:05PM 49.2980 35.0570 206° Southwest 472 543 34,000  Level FlightAware
11:06PM 49.2220 35.0020 205° Southwest 472 543 34,000  Level FlightAware
11:06PM 49.1660 34.9610 206° Southwest 473 544 34,000  Level FlightAware
11:07PM 49.0950 34.9080 206° Southwest 472 543 34,000  Level FlightAware
11:07PM 49.0290 34.8600 205° Southwest 471 542 34,000  Level FlightAware
11:08PM 48.9550 34.8050 206° Southwest 471 542 34,000  Level FlightAware
11:09PM 48.8610 34.7410 204° Southwest 472 543 34,000  Level FlightAware
11:09PM 48.7990 34.7010 203° Southwest 472 543 34,000  Level FlightAware
11:10PM 48.7270 34.6540 203° Southwest 472 543 34,000  Level FlightAware
11:10PM 48.6690 34.6150 204° Southwest 471 542 34,000  Level FlightAware
11:11PM 48.5900 34.5630 204° Southwest 470 541 34,000  Level FlightAware
11:11PM 48.5210 34.5180 203° Southwest 470 541 34,000  Level FlightAware
11:12PM 48.4540 34.4740 204° Southwest 471 542 34,000  Level FlightAware
11:13PM 48.3850 34.4290 203° Southwest 470 541 34,000  Level FlightAware
11:13PM 48.3160 34.3840 203° Southwest 468 539 34,000  Level FlightAware
11:14PM 48.2350 34.3310 204° Southwest 465 535 34,000  Level FlightAware
11:14PM 48.1760 34.2930 203° Southwest 461 531 34,000  Level FlightAware
11:15PM 48.1130 34.2530 203° Southwest 459 528 34,000  Level FlightAware
11:16PM 48.0430 34.2080 203° Southwest 458 527 34,000  Level FlightAware
11:16PM 47.9630 34.1570 203° Southwest 457 526 34,000  Level FlightAware
11:17PM 47.9020 34.1180 203° Southwest 456 525 34,000  Level FlightAware
11:17PM 47.8260 34.0690 203° Southwest 455 524 34,000  Level FlightAware
11:18PM 47.7690 34.0330 203° Southwest 454 522 34,000  Level FlightAware
11:18PM 47.6910 33.9840 203° Southwest 449 517 34,000  Level FlightAware
11:19PM 47.6250 33.9420 203° Southwest 447 514 34,000  Level FlightAware
11:20PM 47.5700 33.9100 201° Southwest 448 516 34,000  Level FlightAware
11:20PM 47.4900 33.8660 200° South 448 516 34,000  Level FlightAware
11:21PM 47.4220 33.8280 201° Southwest 450 518 34,000  Level FlightAware
11:21PM 47.3590 33.7940 200° South 453 521 34,000  Level FlightAware
11:22PM 47.2920 33.7570 201° Southwest 453 521 34,000  Level FlightAware
11:23PM 47.2230 33.7190 201° Southwest 452 520 34,000  Level FlightAware
11:23PM 47.1560 33.6830 200° South 451 519 34,000  Level FlightAware
11:24PM 47.0870 33.6460 200° South 450 518 34,000  Level FlightAware
11:24PM 47.0170 33.6080 200° South 450 518 34,000  Level FlightAware
11:25PM 46.9480 33.5710 200° South 450 518 34,000  Level FlightAware
11:25PM 46.8790 33.5340 200° South 450 518 34,000  Level FlightAware
11:26PM 46.8180 33.5000 201° Southwest 448 516 34,000  Level FlightAware
11:27PM 46.7540 33.4490 209° Southwest 445 512 34,000  Level FlightAware
11:27PM 46.6860 33.3900 211° Southwest 447 514 34,000  Level FlightAware
11:28PM 46.6340 33.3450 211° Southwest 448 516 34,000  Level FlightAware
11:28PM 46.5630 33.2840 211° Southwest 448 516 34,000  Level FlightAware
11:29PM 46.5010 33.2300 211° Southwest 448 516 34,000  Level FlightAware
11:30PM 46.4440 33.1810 211° Southwest 448 516 34,000  Level FlightAware
11:30PM 46.3740 33.1210 211° Southwest 448 516 34,000  Level FlightAware
11:31PM 46.3130 33.0680 211° Southwest 448 516 34,000  Level FlightAware
11:31PM 46.2560 33.0190 211° Southwest 448 516 34,000  Level FlightAware
11:32PM 46.1930 32.9660 210° Southwest 449 517 34,000  Level FlightAware
11:32PM 46.1250 32.9090 210° Southwest 449 517 34,000  Level FlightAware
11:33PM 46.0620 32.8560 210° Southwest 449 517 34,000  Level FlightAware
11:34PM 46.0000 32.8040 210° Southwest 451 519 34,000  Level FlightAware
11:34PM 45.9360 32.7500 210° Southwest 451 519 34,000  Level FlightAware
11:35PM 45.8750 32.6990 210° Southwest 451 519 34,000  Level FlightAware
11:36PM 45.7920 32.6300 210° Southwest 450 518 34,000  Level FlightAware
11:36PM 45.7310 32.5800 210° Southwest 448 516 34,000  Level FlightAware
11:37PM 45.6650 32.5250 210° Southwest 448 516 34,000  Level FlightAware
11:37PM 45.5970 32.4690 210° Southwest 447 514 34,000  Level FlightAware
11:38PM 45.5380 32.4200 210° Southwest 447 514 34,000  Level FlightAware
11:38PM 45.4790 32.3720 210° Southwest 447 514 34,000  Level FlightAware
11:39PM 45.4070 32.3130 210° Southwest 448 516 34,000  Level FlightAware
11:40PM 45.3460 32.2640 209° Southwest 449 517 34,000  Level FlightAware
11:40PM 45.2820 32.2120 210° Southwest 449 517 34,000  Level FlightAware
11:41PM 45.2180 32.1600 210° Southwest 449 517 34,000  Level FlightAware
11:41PM 45.1550 32.1090 210° Southwest 448 516 34,000  Level FlightAware
11:42PM 45.0930 32.0600 209° Southwest 448 516 34,000  Level FlightAware
11:43PM 45.0210 32.0020 210° Southwest 440 506 34,000 -180 Level FlightAware
11:43PM 44.9590 31.9530 209° Southwest 432 497 33,800 -660 Descending FlightAware
11:44PM 44.8890 31.8970 210° Southwest 432 497 33,200 -960 Descending FlightAware
11:44PM 44.8390 31.8580 209° Southwest 430 495 32,700 -960 Descending FlightAware
11:45PM 44.7820 31.8120 210° Southwest 429 494 32,200 -600 Descending FlightAware
11:46PM 44.7230 31.7650 210° Southwest 427 491 32,000 -180 Descending FlightAware
11:46PM 44.6610 31.7170 209° Southwest 427 491 32,000  Level FlightAware
11:47PM 44.5940 31.6650 209° Southwest 439 505 32,000  Level FlightAware
11:47PM 44.5270 31.6120 209° Southwest 443 510 32,000  Level FlightAware
11:48PM 44.4700 31.5680 209° Southwest 443 510 32,000  Level FlightAware
11:49PM 44.4100 31.5210 209° Southwest 444 511 32,000  Level FlightAware
11:49PM 44.3490 31.4730 209° Southwest 444 511 32,000  Level FlightAware
11:50PM 44.2810 31.4210 209° Southwest 444 511 32,000  Level FlightAware
11:50PM 44.2180 31.3720 209° Southwest 445 512 32,000  Level FlightAware
11:51PM 44.1480 31.3180 209° Southwest 443 510 32,000  Level FlightAware
11:51PM 44.0930 31.2770 208° Southwest 440 506 32,000  Level FlightAware
11:52PM 44.0310 31.2290 209° Southwest 437 503 32,000  Level FlightAware
11:53PM 43.9700 31.1830 208° Southwest 437 503 32,000  Level FlightAware
11:53PM 43.8970 31.1280 209° Southwest 437 503 32,000  Level FlightAware
11:54PM 43.8440 31.0880 209° Southwest 439 505 32,000  Level FlightAware
11:54PM 43.7820 31.0410 209° Southwest 439 505 32,000  Level FlightAware
11:55PM 43.7110 30.9870 209° Southwest 438 504 32,000  Level FlightAware
11:56PM 43.6590 30.9490 208° Southwest 438 504 32,000  Level FlightAware
11:56PM 43.5980 30.9010 210° Southwest 438 504 32,000  Level FlightAware
11:57PM 43.5340 30.8520 209° Southwest 438 504 32,000  Level FlightAware
11:57PM 43.4790 30.8100 209° Southwest 436 502 32,000  Level FlightAware
11:58PM 43.4100 30.7580 209° Southwest 435 501 32,000  Level FlightAware
11:58PM 43.3540 30.7040 215° Southwest 428 493 32,000  Level FlightAware
11:59PM 43.2910 30.6080 228° Southwest 423 487 32,000  Level FlightAware
12:00AM 43.2420 30.5300 229° Southwest 420 483 32,000  Level FlightAware
12:00AM 43.2010 30.4660 229° Southwest 417 480 32,000  Level FlightAware
12:01AM 43.1540 30.3930 229° Southwest 417 480 32,000  Level FlightAware
12:02AM 43.0910 30.2950 229° Southwest 417 480 32,000  Level FlightAware
12:03AM 43.0440 30.2220 229° Southwest 418 481 32,000  Level FlightAware
12:03AM 43.0000 30.1530 229° Southwest 419 482 32,000  Level FlightAware
12:04AM 42.9440 30.0670 228° Southwest 419 482 32,000  Level FlightAware
12:04AM 42.9080 30.0120 228° Southwest 420 483 32,000  Level FlightAware
12:05AM 42.8430 29.9120 228° Southwest 416 479 32,000  Level FlightAware
12:06AM 42.7900 29.8300 229° Southwest 416 479 32,000  Level FlightAware
12:06AM 42.7430 29.7580 228° Southwest 418 481 32,000  Level FlightAware
12:07AM 42.6880 29.6750 228° Southwest 424 488 32,000  Level FlightAware
12:08AM 42.6480 29.6140 228° Southwest 424 488 32,000  Level FlightAware
12:08AM 42.5790 29.5090 228° Southwest 418 481 32,000  Level FlightAware
12:09AM 42.5350 29.4420 228° Southwest 418 481 32,000  Level FlightAware
12:10AM 42.4840 29.3660 228° Southwest 419 482 32,000  Level FlightAware
12:10AM 42.4430 29.3040 228° Southwest 418 481 32,000 -240 Level FlightAware
12:11AM 42.4000 29.2400 228° Southwest 415 478 31,800 -720 Descending FlightAware
12:11AM 42.3530 29.1690 228° Southwest 411 473 31,200 -1,020 Descending FlightAware
12:12AM 42.3120 29.1070 228° Southwest 412 474 30,700 -1,020 Descending FlightAware
12:13AM 42.2670 29.0400 228° Southwest 414 476 30,100 -1,020 Descending FlightAware
12:13AM 42.2200 28.9700 228° Southwest 415 478 29,500 -1,080 Descending FlightAware
12:14AM 42.1780 28.9080 228° Southwest 408 470 28,900 -1,680 Descending FlightAware
12:14AM 42.1340 28.8420 228° Southwest 398 458 27,600 -2,160 Descending FlightAware
12:15AM 42.0750 28.7770 219° Southwest 405 466 26,000 -2,460 Descending FlightAware
12:15AM 42.0510 28.7690 194° South 414 476 25,400 -2,280 Descending FlightAware
12:16AM 41.9610 28.7710 179° South 402 463 23,800 -2,040 Descending FlightAware
12:17AM 41.8940 28.7730 179° South 400 460 22,600 -2,160 Descending FlightAware
12:17AM 41.8300 28.7750 179° South 387 445 21,300 -2,280 Descending FlightAware
12:18AM 41.7390 28.7720 181° South 384 442 19,400 -2,280 Descending FlightAware
12:19AM 41.6770 28.7400 201° Southwest 376 433 18,000 -2,220 Descending FlightAware
12:19AM 41.6200 28.7240 192° South 373 429 16,800 -2,040 Descending FlightAware
12:20AM 41.5630 28.7090 191° South 365 420 15,700 -1,920 Descending FlightAware
12:20AM 41.5170 28.6970 191° South 361 415 14,800 -1,740 Descending FlightAware
12:22AM 41.3880 28.6630 191° South 333 383 12,600 -1,500 Descending FlightAware
12:22AM 41.3410 28.6510 191° South 318 366 12,100 -1,140 Descending FlightAware
12:24AM 41.2060 28.6160 191° South 288 331 10,100 -1,260 Descending FlightAware
12:24AM 41.1790 28.6090 191° South 289 333 9,600 -1,860 Descending FlightAware
12:25AM 41.1280 28.5960 191° South 288 331 8,300 -1,860 Descending FlightAware
12:25AM 41.1060 28.5900 192° South 281 323 7,900 -1,500 Descending FlightAware
12:25AM 41.0810 28.5830 192° South 278 320 7,400 -1,680 Descending FlightAware
12:26AM 41.0560 28.5770 190° South 274 315 6,800 -1,740 Descending FlightAware
12:26AM 41.0450 28.5760 184° South 268 308 6,600 -1,800 Descending FlightAware
12:26AM 41.0350 28.5790 167° South 265 305 6,300 -1,440 Descending FlightAware
12:26AM 41.0300 28.5810 163° South 261 300 6,300 -1,140 Level FlightAware
12:26AM 41.0220 28.5830 169° South 255 293 6,100 -1,920 Descending FlightAware
12:26AM 41.0130 28.5870 161° South 246 283 5,800 -2,520 Descending FlightAware
12:26AM 41.0040 28.5900 166° South 243 280 5,400 -3,000 Descending FlightAware
12:27AM 41.0000 28.5910 169° South 242 278 5,200 -3,840 Descending FlightAware
12:27AM 40.9910 28.5940 166° South 240 276 4,700 -3,600 Descending FlightAware
12:27AM 40.9830 28.5970 164° South 238 274 4,300 -2,820 Descending FlightAware
12:27AM 40.9770 28.5980 173° South 236 272 4,100 -1,860 Descending FlightAware
12:27AM 40.9700 28.6010 162° South 231 266 3,900 -2,040 Descending FlightAware
12:27AM 40.9620 28.6030 169° South 222 255 3,600 -2,040 Descending FlightAware
12:27AM 40.9540 28.6050 169° South 213 245 3,400 -1,080 Descending FlightAware
12:27AM 40.9460 28.6080 164° South 202 232 3,300 -960 Descending FlightAware
12:27AM 40.9420 28.6090 169° South 197 227 3,200 -1,800 Descending FlightAware
12:28AM 40.9360 28.6110 166° South 190 219 3,000 -1,200 Descending FlightAware
12:28AM 40.9290 28.6150 157° South 182 209 2,900 -720 Descending FlightAware
12:28AM 40.9250 28.6220 127° Southeast 175 201 2,800 -900 Descending FlightAware
12:28AM 40.9230 28.6260 123° Southeast 171 197 2,700 -1,140 Descending FlightAware
12:28AM 40.9220 28.6320 102° East 170 196 2,600 -1,200 Descending FlightAware
12:28AM 40.9210 28.6420 98° East 171 197 2,400 -1,080 Descending FlightAware
12:28AM 40.9210 28.6510 90° East 171 197 2,300 -1,200 Descending FlightAware
12:28AM 40.9210 28.6530 90° East 171 197 2,200 -1,140 Descending FlightAware
12:28AM 40.9200 28.6630 98° East 170 196 2,100 -720 Descending FlightAware
12:29AM 40.9190 28.6720 98° East 169 194 2,000 -720 Descending FlightAware
12:29AM 40.9190 28.6800 90° East 164 189 1,900 -600 Descending FlightAware
12:29AM 40.9190 28.6810 90° East 163 188 1,900  Level FlightAware
12:29AM 40.9180 28.6910 98° East 159 183 1,900  Level FlightAware
12:29AM 40.9180 28.6990 90° East 158 182 1,900 -420 Level FlightAware
12:29AM 40.9220 28.7160 73° East 148 170 1,700 -900 Descending FlightAware
12:30AM 40.9250 28.7230 60° Northeast 144 166 1,500 -840 Descending FlightAware
12:30AM 40.9270 28.7270 57° Northeast 142 163 1,500 -600 Level FlightAware
12:30AM 40.9290 28.7310 57° Northeast 139 160 1,400 -960 Descending FlightAware
12:30AM 40.9320 28.7370 57° Northeast 137 158 1,300 -840 Descending FlightAware
12:30AM 40.9340 28.7420 62° Northeast 137 158 1,200 -660 Descending FlightAware
12:30AM 40.9410 28.7580 60° Northeast 137 158 1,000 -720 Descending FlightAware
12:31AM 40.9480 28.7710 55° Northeast 137 158 700 -840 Descending FlightAware
12:31AM 40.9560 28.7880 58° Northeast 139 160 400 -720 Descending FlightAware
12:31AM 40.9620 28.8020 60° Northeast 138 159 200 -300 Descending FlightAware
12:32AM 40.9700 28.8180 56° Northeast 138 159 200  Level FlightAware